Nordic Philip — 5BZH2 — position and weather

sailwx.info

Track history (hours):
 
Tides and Currents Weather Stations Pressure Air Temp Water Temp Dewpoint Dewpoint Depression Visibility Wind Speed Wind Dir Waves Ship Positions

Nordic Philip

Last reported at 2014-Dec-18 16:04 UTC. Time now 2014-Dec-19 15:10 UTC.
Position N 59°33' E 023°05'.

Length 151 m; draft 7.1 m.

Type: Ship (hazmat cat A). MMSI: 212018000.

Date/timePositionNaut miles runAvg speedWind from/ knotsBaromVisibWave heightAir tempDewpointWater temp
2014-Dec-18 16:04N 59°33' E 023°05'713.7
2014-Dec-18 15:33N 59°34' E 023°18'1413.7
2014-Dec-18 14:33N 59°36' E 023°46'1513.8
2014-Dec-18 13:28N 59°38' E 024°14'1313.9
2014-Dec-18 12:33N 59°38' E 024°40'7 0.3
2014-Dec-17 14:33N 59°35' E 024°53'1615.5
2014-Dec-17 13:33N 59°43' E 024°26'3417.0
2014-Dec-17 11:32N 59°33' E 023°21'35015.2
2014-Dec-16 12:33N 55°37' E 015°20'1515.5
2014-Dec-16 11:33N 55°29' E 014°56'1615.8
2014-Dec-16 10:33N 55°20' E 014°34'1615.5
2014-Dec-16 09:33N 55°07' E 014°18'1514.9
2014-Dec-16 08:33N 54°59' E 013°56'1514.7
2014-Dec-16 07:33N 54°54' E 013°32'4514.3
2014-Dec-16 04:24N 54°36' E 012°21'1214.2
2014-Dec-16 03:32N 54°25' E 012°11'1414.4
2014-Dec-16 02:33N 54°25' E 011°46'2215.3
2014-Dec-16 01:07N 54°34' E 011°12'2314.6
2014-Dec-15 23:33N 54°33' E 010°33'1313.2
2014-Dec-15 22:33N 54°26' E 010°14'5 5.1
2014-Dec-15 21:33N 54°22' E 010°09'1 1.0
2014-Dec-15 20:33N 54°22' E 010°07'5 4.9
2014-Dec-15 19:33N 54°21' E 009°59'8 7.7
2014-Dec-15 18:33N 54°21' E 009°46'6 5.8
2014-Dec-15 17:29N 54°16' E 009°38'3 2.9
2014-Dec-15 16:29N 54°14' E 009°36'8 8.4
2014-Dec-15 15:30N 54°10' E 009°24'7 7.8
2014-Dec-15 14:33N 54°03' E 009°18'3 2.6
2014-Dec-15 13:33N 54°00' E 009°18'8 8.2
2014-Dec-15 12:33N 53°54' E 009°09'2 1.8
2014-Dec-15 11:34N 53°53' E 009°07'2 1.7
2014-Dec-15 10:33N 53°53' E 009°04'1212.0
2014-Dec-15 09:33N 53°52' E 008°44'1313.0
2014-Dec-15 08:33N 53°59' E 008°25'1514.8
2014-Dec-15 07:33N 53°58' E 007°59'9 9.6
2014-Dec-15 06:34N 53°49' E 008°07'1413.8
2014-Dec-15 05:34N 53°40' E 008°24'6 4.3
2014-Dec-15 04:13N 53°36' E 008°31'0 0.0
2014-Dec-15 03:10N 53°36' E 008°31'0 0.0
2014-Dec-15 01:10N 53°36' E 008°31'0 0.0
2014-Dec-15 00:10N 53°36' E 008°31'0 0.0
2014-Dec-14 23:10N 53°36' E 008°31'0 0.0
2014-Dec-14 22:10N 53°36' E 008°31'0 0.0
2014-Dec-14 21:22N 53°36' E 008°31'0 0.0
2014-Dec-14 20:28N 53°36' E 008°31'0 0.0
2014-Dec-14 19:33N 53°36' E 008°31'1 1.0
2014-Dec-14 18:32N 53°35' E 008°32'0 0.0
2014-Dec-14 17:32N 53°35' E 008°32'0 0.0
2014-Dec-14 16:32N 53°35' E 008°32'0 0.0
2014-Dec-14 15:32N 53°35' E 008°32'0 0.0
2014-Dec-14 14:32N 53°35' E 008°32'0 0.0
2014-Dec-14 13:32N 53°35' E 008°32'0 0.0
2014-Dec-14 12:32N 53°35' E 008°32'0 0.0
2014-Dec-14 11:32N 53°35' E 008°32'5 5.0
2014-Dec-14 10:33N 53°38' E 008°26'1414.2
2014-Dec-14 09:33N 53°48' E 008°08'1010.2
2014-Dec-14 08:33N 53°54' E 007°54'1111.4
2014-Dec-14 07:33N 54°01' E 008°10'1615.9
2014-Dec-14 06:33N 53°58' E 008°36'1414.0
2014-Dec-14 05:34N 53°51' E 008°57'1110.9
2014-Dec-14 04:33N 53°53' E 009°16'1313.3
2014-Dec-14 03:33N 53°42' E 009°30'1312.5
2014-Dec-14 02:33N 53°34' E 009°45'6 5.7
2014-Dec-14 01:33N 53°32' E 009°55'0 0.0
2014-Dec-14 00:30N 53°32' E 009°55'0 0.0
2014-Dec-13 23:33N 53°32' E 009°55'0 0.0
2014-Dec-13 22:33N 53°32' E 009°55'0 0.0
2014-Dec-13 21:33N 53°32' E 009°55'0 0.0
2014-Dec-13 20:33N 53°32' E 009°55'0 0.0
2014-Dec-13 19:30N 53°32' E 009°55'0 0.0
2014-Dec-13 18:33N 53°32' E 009°55'0 0.0
2014-Dec-13 17:33N 53°32' E 009°55'1 1.4
2014-Dec-13 16:31N 53°32' E 009°57'0 0.0
2014-Dec-13 15:31N 53°32' E 009°57'0 0.0
2014-Dec-13 14:31N 53°32' E 009°57'0 0.0
2014-Dec-13 13:31N 53°32' E 009°57'0 0.0
2014-Dec-13 12:31N 53°32' E 009°57'0 0.0
2014-Dec-13 11:31N 53°32' E 009°57'0 0.0
2014-Dec-13 10:28N 53°32' E 009°57'0 0.0
2014-Dec-13 09:31N 53°32' E 009°57'0 0.0
2014-Dec-13 08:31N 53°32' E 009°57'0 0.0
2014-Dec-13 07:31N 53°32' E 009°57'0 0.3
2014-Dec-13 06:33N 53°32' E 009°57'2 2.2
2014-Dec-13 05:31N 53°30' E 009°56'0 0.0
2014-Dec-13 04:31N 53°30' E 009°56'0 0.0
2014-Dec-13 03:31N 53°30' E 009°56'0 0.0
2014-Dec-13 02:25N 53°30' E 009°56'0 0.0
2014-Dec-13 01:31N 53°30' E 009°56'0 0.0
2014-Dec-13 00:25N 53°30' E 009°56'2 2.7
2014-Dec-12 23:34N 53°32' E 009°56'1 0.8
2014-Dec-12 22:31N 53°32' E 009°55'0 0.0
2014-Dec-12 21:25N 53°32' E 009°55'0 0.0
2014-Dec-12 20:28N 53°32' E 009°55'0 0.0
2014-Dec-12 19:31N 53°32' E 009°55'0 0.0
2014-Dec-12 18:31N 53°32' E 009°55'0 0.0
2014-Dec-12 17:28N 53°32' E 009°55'0 0.0
2014-Dec-12 16:28N 53°32' E 009°55'0 0.0
2014-Dec-12 15:31N 53°32' E 009°55'0 0.0
2014-Dec-12 14:31N 53°32' E 009°55'0 0.0
2014-Dec-12 13:28N 53°32' E 009°55'0 0.0
2014-Dec-12 12:31N 53°32' E 009°55'0 0.0
2014-Dec-12 11:31N 53°32' E 009°55'1 0.6
2014-Dec-12 10:34N 53°32' E 009°54'7 7.0
2014-Dec-12 09:33N 53°34' E 009°43'10 9.9
2014-Dec-12 08:33N 53°40' E 009°30'1313.2
2014-Dec-12 07:33N 53°51' E 009°18'6 6.0
2014-Dec-12 06:33N 53°54' E 009°09'1 0.8
2014-Dec-12 05:33N 53°54' E 009°10'0 0.3
2014-Dec-12 04:34N 53°54' E 009°10'7 7.4
2014-Dec-12 03:33N 54°00' E 009°18'8 8.3
2014-Dec-12 02:33N 54°09' E 009°21'10 8.2
2014-Dec-12 01:19N 54°13' E 009°36'6 7.0
2014-Dec-12 00:32N 54°18' E 009°42'7 7.3
2014-Dec-11 23:33N 54°22' E 009°52'7 6.7
2014-Dec-11 22:33N 54°22' E 010°04'3 2.8
2014-Dec-11 21:34N 54°22' E 010°08'1 0.8
2014-Dec-11 20:33N 54°22' E 010°10'9 8.7
2014-Dec-11 19:33N 54°30' E 010°17'1313.3
2014-Dec-11 18:33N 54°34' E 010°38'3913.0
2014-Dec-11 15:33N 54°27' E 011°44'1413.6
2014-Dec-11 14:33N 54°27' E 012°07'4212.8
2014-Dec-11 11:16N 54°52' E 013°05'1513.9
2014-Dec-11 10:12N 54°58' E 013°29'913.6
2014-Dec-11 09:33N 55°00' E 013°44'1413.6
2014-Dec-11 08:33N 55°05' E 014°06'1414.0
2014-Dec-11 07:33N 55°16' E 014°21'1413.9
2014-Dec-11 06:33N 55°27' E 014°37'1312.6
2014-Dec-11 05:33N 55°33' E 014°56'1313.0
2014-Dec-11 04:33N 55°39' E 015°16'34111.6
2014-Dec-09 23:16N 59°34' E 022°58'1115.2
2014-Dec-09 22:33N 59°37' E 023°19'1515.3
2014-Dec-09 21:33N 59°42' E 023°48'7915.8
2014-Dec-09 16:33N 59°60' E 026°20'1615.8
2014-Dec-09 15:33N 60°00' E 026°52'1515.3
2014-Dec-09 14:33N 60°05' E 027°21'8213.6
2014-Dec-09 08:30N 59°54' E 030°04'  
Track history (hours):
 
Tides and Currents Weather Stations Pressure Air Temp Water Temp Dewpoint Dewpoint Depression Visibility Wind Speed Wind Dir Waves Ship Positions

Nordic Philip

Last reported at 2014-Dec-18 16:04 UTC. Time now 2014-Dec-19 15:10 UTC.
Position N 59°33' E 023°05'.

Length 151 m; draft 7.1 m.

Type: Ship (hazmat cat A). MMSI: 212018000.

Date/timePositionNaut miles runAvg speedWind from/ knotsBaromVisibWave heightAir tempDewpointWater temp
2014-Dec-18 16:04N 59°33' E 023°05'713.7
2014-Dec-18 15:33N 59°34' E 023°18'1413.7
2014-Dec-18 14:33N 59°36' E 023°46'1513.8
2014-Dec-18 13:28N 59°38' E 024°14'1313.9
2014-Dec-18 12:33N 59°38' E 024°40'7 0.3
2014-Dec-17 14:33N 59°35' E 024°53'1615.5
2014-Dec-17 13:33N 59°43' E 024°26'3417.0
2014-Dec-17 11:32N 59°33' E 023°21'35015.2
2014-Dec-16 12:33N 55°37' E 015°20'1515.5
2014-Dec-16 11:33N 55°29' E 014°56'1615.8
2014-Dec-16 10:33N 55°20' E 014°34'1615.5
2014-Dec-16 09:33N 55°07' E 014°18'1514.9
2014-Dec-16 08:33N 54°59' E 013°56'1514.7
2014-Dec-16 07:33N 54°54' E 013°32'4514.3
2014-Dec-16 04:24N 54°36' E 012°21'1214.2
2014-Dec-16 03:32N 54°25' E 012°11'1414.4
2014-Dec-16 02:33N 54°25' E 011°46'2215.3
2014-Dec-16 01:07N 54°34' E 011°12'2314.6
2014-Dec-15 23:33N 54°33' E 010°33'1313.2
2014-Dec-15 22:33N 54°26' E 010°14'5 5.1
2014-Dec-15 21:33N 54°22' E 010°09'1 1.0
2014-Dec-15 20:33N 54°22' E 010°07'5 4.9
2014-Dec-15 19:33N 54°21' E 009°59'8 7.7
2014-Dec-15 18:33N 54°21' E 009°46'6 5.8
2014-Dec-15 17:29N 54°16' E 009°38'3 2.9
2014-Dec-15 16:29N 54°14' E 009°36'8 8.4
2014-Dec-15 15:30N 54°10' E 009°24'7 7.8
2014-Dec-15 14:33N 54°03' E 009°18'3 2.6
2014-Dec-15 13:33N 54°00' E 009°18'8 8.2
2014-Dec-15 12:33N 53°54' E 009°09'2 1.8
2014-Dec-15 11:34N 53°53' E 009°07'2 1.7
2014-Dec-15 10:33N 53°53' E 009°04'1212.0
2014-Dec-15 09:33N 53°52' E 008°44'1313.0
2014-Dec-15 08:33N 53°59' E 008°25'1514.8
2014-Dec-15 07:33N 53°58' E 007°59'9 9.6
2014-Dec-15 06:34N 53°49' E 008°07'1413.8
2014-Dec-15 05:34N 53°40' E 008°24'6 4.3
2014-Dec-15 04:13N 53°36' E 008°31'0 0.0
2014-Dec-15 03:10N 53°36' E 008°31'0 0.0
2014-Dec-15 01:10N 53°36' E 008°31'0 0.0
2014-Dec-15 00:10N 53°36' E 008°31'0 0.0
2014-Dec-14 23:10N 53°36' E 008°31'0 0.0
2014-Dec-14 22:10N 53°36' E 008°31'0 0.0
2014-Dec-14 21:22N 53°36' E 008°31'0 0.0
2014-Dec-14 20:28N 53°36' E 008°31'0 0.0
2014-Dec-14 19:33N 53°36' E 008°31'1 1.0
2014-Dec-14 18:32N 53°35' E 008°32'0 0.0
2014-Dec-14 17:32N 53°35' E 008°32'0 0.0
2014-Dec-14 16:32N 53°35' E 008°32'0 0.0
2014-Dec-14 15:32N 53°35' E 008°32'0 0.0
2014-Dec-14 14:32N 53°35' E 008°32'0 0.0
2014-Dec-14 13:32N 53°35' E 008°32'0 0.0
2014-Dec-14 12:32N 53°35' E 008°32'0 0.0
2014-Dec-14 11:32N 53°35' E 008°32'5 5.0
2014-Dec-14 10:33N 53°38' E 008°26'1414.2
2014-Dec-14 09:33N 53°48' E 008°08'1010.2
2014-Dec-14 08:33N 53°54' E 007°54'1111.4
2014-Dec-14 07:33N 54°01' E 008°10'1615.9
2014-Dec-14 06:33N 53°58' E 008°36'1414.0
2014-Dec-14 05:34N 53°51' E 008°57'1110.9
2014-Dec-14 04:33N 53°53' E 009°16'1313.3
2014-Dec-14 03:33N 53°42' E 009°30'1312.5
2014-Dec-14 02:33N 53°34' E 009°45'6 5.7
2014-Dec-14 01:33N 53°32' E 009°55'0 0.0
2014-Dec-14 00:30N 53°32' E 009°55'0 0.0
2014-Dec-13 23:33N 53°32' E 009°55'0 0.0
2014-Dec-13 22:33N 53°32' E 009°55'0 0.0
2014-Dec-13 21:33N 53°32' E 009°55'0 0.0
2014-Dec-13 20:33N 53°32' E 009°55'0 0.0
2014-Dec-13 19:30N 53°32' E 009°55'0 0.0
2014-Dec-13 18:33N 53°32' E 009°55'0 0.0
2014-Dec-13 17:33N 53°32' E 009°55'1 1.4
2014-Dec-13 16:31N 53°32' E 009°57'0 0.0
2014-Dec-13 15:31N 53°32' E 009°57'0 0.0
2014-Dec-13 14:31N 53°32' E 009°57'0 0.0
2014-Dec-13 13:31N 53°32' E 009°57'0 0.0
2014-Dec-13 12:31N 53°32' E 009°57'0 0.0
2014-Dec-13 11:31N 53°32' E 009°57'0 0.0
2014-Dec-13 10:28N 53°32' E 009°57'0 0.0
2014-Dec-13 09:31N 53°32' E 009°57'0 0.0
2014-Dec-13 08:31N 53°32' E 009°57'0 0.0
2014-Dec-13 07:31N 53°32' E 009°57'0 0.3
2014-Dec-13 06:33N 53°32' E 009°57'2 2.2
2014-Dec-13 05:31N 53°30' E 009°56'0 0.0
2014-Dec-13 04:31N 53°30' E 009°56'0 0.0
2014-Dec-13 03:31N 53°30' E 009°56'0 0.0
2014-Dec-13 02:25N 53°30' E 009°56'0 0.0
2014-Dec-13 01:31N 53°30' E 009°56'0 0.0
2014-Dec-13 00:25N 53°30' E 009°56'2 2.7
2014-Dec-12 23:34N 53°32' E 009°56'1 0.8
2014-Dec-12 22:31N 53°32' E 009°55'0 0.0
2014-Dec-12 21:25N 53°32' E 009°55'0 0.0
2014-Dec-12 20:28N 53°32' E 009°55'0 0.0
2014-Dec-12 19:31N 53°32' E 009°55'0 0.0
2014-Dec-12 18:31N 53°32' E 009°55'0 0.0
2014-Dec-12 17:28N 53°32' E 009°55'0 0.0
2014-Dec-12 16:28N 53°32' E 009°55'0 0.0
2014-Dec-12 15:31N 53°32' E 009°55'0 0.0
2014-Dec-12 14:31N 53°32' E 009°55'0 0.0
2014-Dec-12 13:28N 53°32' E 009°55'0 0.0
2014-Dec-12 12:31N 53°32' E 009°55'0 0.0
2014-Dec-12 11:31N 53°32' E 009°55'1 0.6
2014-Dec-12 10:34N 53°32' E 009°54'7 7.0
2014-Dec-12 09:33N 53°34' E 009°43'10 9.9
2014-Dec-12 08:33N 53°40' E 009°30'1313.2
2014-Dec-12 07:33N 53°51' E 009°18'6 6.0
2014-Dec-12 06:33N 53°54' E 009°09'1 0.8
2014-Dec-12 05:33N 53°54' E 009°10'0 0.3
2014-Dec-12 04:34N 53°54' E 009°10'7 7.4
2014-Dec-12 03:33N 54°00' E 009°18'8 8.3
2014-Dec-12 02:33N 54°09' E 009°21'10 8.2
2014-Dec-12 01:19N 54°13' E 009°36'6 7.0
2014-Dec-12 00:32N 54°18' E 009°42'7 7.3
2014-Dec-11 23:33N 54°22' E 009°52'7 6.7
2014-Dec-11 22:33N 54°22' E 010°04'3 2.8
2014-Dec-11 21:34N 54°22' E 010°08'1 0.8
2014-Dec-11 20:33N 54°22' E 010°10'9 8.7
2014-Dec-11 19:33N 54°30' E 010°17'1313.3
2014-Dec-11 18:33N 54°34' E 010°38'3913.0
2014-Dec-11 15:33N 54°27' E 011°44'1413.6
2014-Dec-11 14:33N 54°27' E 012°07'4212.8
2014-Dec-11 11:16N 54°52' E 013°05'1513.9
2014-Dec-11 10:12N 54°58' E 013°29'913.6
2014-Dec-11 09:33N 55°00' E 013°44'1413.6
2014-Dec-11 08:33N 55°05' E 014°06'1414.0
2014-Dec-11 07:33N 55°16' E 014°21'1413.9
2014-Dec-11 06:33N 55°27' E 014°37'1312.6
2014-Dec-11 05:33N 55°33' E 014°56'1313.0
2014-Dec-11 04:33N 55°39' E 015°16'34111.6
2014-Dec-09 23:16N 59°34' E 022°58'1115.2
2014-Dec-09 22:33N 59°37' E 023°19'1515.3
2014-Dec-09 21:33N 59°42' E 023°48'7915.8
2014-Dec-09 16:33N 59°60' E 026°20'1615.8
2014-Dec-09 15:33N 60°00' E 026°52'1515.3
2014-Dec-09 14:33N 60°05' E 027°21'8213.6
2014-Dec-09 08:30N 59°54' E 030°04'  

Dump ship's entire track history